MMCU/CUU METAR and TAF weather

Enter ICAO airport designator
Station Type Date Time Source
MMCU METAR 2022/09/26 02:42 UTC NOAA

MMCU 260242Z 36009KT 10SM BKN030TCU 25/10 A3016 RMK SLP117 52020 951 8/200 AC


Station Type Date Time Source
MMCU Decoded METAR 2022/09/26 02:42 UTC NOAA

Chihuahua International Airport, Mexico (MMCU) 28-42N 105-58W
Sep 25, 2022 - 10:42 PM EDT / 2022.09.26 0242 UTC
Wind: from the N (360 degrees) at 10 MPH (9 KT):0
Visibility: 10 mile(s):0
Sky conditions: mostly cloudy
Weather: Towering cumulus clouds observed
Temperature: 77 F (25 C)
Dew Point: 50 F (10 C)
Relative Humidity: 38%
Pressure (altimeter): 30.16 in. Hg (1021 hPa)
Pressure tendency: 0.06 inches (2.0 hPa) higher than three hours ago
ob: MMCU 260242Z 36009KT 10SM BKN030TCU 25/10 A3016 RMK SLP117 52020 951 8/200 AC
cycle: 2

Station Type Date Time Source
MMCU TAF 2022/09/26 06:30 UTC NOAA

TAF MMCU 260425Z 2606/2706 36006KT P6SM SCT030
FM261800 07012KT P6SM SCT030 SCT250 PROB40 2621/2701 5SM TSRA BKN030CB
FM270500 09005KT P6SM SCT030

Example: see airport list